Latest Coastal Weather Observations for Cowley Beach (Defence)

IDQ60701

Issued at 7:02 pm EST Saturday 9 December 2023 (issued every 10 minutes, with the page automatically refreshed every 10 minutes)

About coastal observations | Map of coastal stations | Coastal observations for QLD | Marine services | Other Formats
Station Details ID: 032194 Name: COWLEY BEACH (DEFENCE) Lat: -17.69 Lon: 146.11 Height: 4.25 m
Data from the previous 72 hours. | See also: Recent months for locations in Queensland
Date/Time
EST
Wind Sea
Height
m
Swell Vis
km
Cloud Weather Temp
°C
Press
MSL
hPa
Rain since
9am
mm
Dir  Spd
kts
Gust
kts
Height
m
Period
s
Dir
09/07:00pm E 4 9 - - - - - - - 27.5 - 0.0
09/06:30pm ESE 4 8 - - - - - - - 27.8 - 0.0
09/06:00pm ESE 4 8 - - - - - - - 28.1 - 0.0
09/05:30pm ESE 4 9 - - - - - - - 28.6 - 0.0
09/05:00pm SE 5 9 - - - - - - - 29.5 - 0.0
09/04:30pm SE 4 7 - - - - - - - 29.8 - 0.0
09/04:00pm SE 4 9 - - - - - - - 30.4 - 0.0
09/03:30pm ESE 5 8 - - - - - - - 30.1 - 0.0
09/03:00pm ESE 5 8 - - - - - - - 30.4 - 0.0
09/02:30pm SE 5 9 - - - - - - - 30.8 - 0.0
09/02:00pm ESE 3 7 - - - - - - - 32.1 - 0.0
09/01:30pm SSE 3 8 - - - - - - - 31.8 - 0.0
09/01:00pm E 3 7 - - - - - - - 32.2 - 0.0
09/12:30pm SE 3 6 - - - - - - - 31.6 - 0.0
09/12:00pm E 3 9 - - - - - - - 32.2 - 0.0
09/11:30am ESE 3 7 - - - - - - - 31.7 - 0.0
09/11:00am ESE 3 6 - - - - - - - 31.6 - 0.0
09/10:30am ESE 3 7 - - - - - - - 31.7 - 0.0
09/10:00am SE 4 8 - - - - - - - 31.1 - 0.0
09/09:30am E 3 7 - - - - - - - 30.8 - 0.0
09/09:00am SSE 4 9 - - - - - - - 30.3 - 4.0
09/08:30am ESE 2 6 - - - - - - - 29.0 - 4.0
09/08:00am ESE 3 7 - - - - - - - 29.5 - 4.0
09/07:30am SE 3 7 - - - - - - - 28.8 - 4.0
09/07:00am SE 3 6 - - - - - - - 27.8 - 4.0
09/06:30am ESE 4 7 - - - - - - - 27.1 - 4.0
09/06:00am SE 3 7 - - - - - - Recent precip. 26.4 - 4.0
09/05:30am S 4 8 - - - - - - - 25.2 - 4.0
09/05:00am SE 3 6 - - - - - - - 26.1 - 3.8
09/04:30am SSE 2 7 - - - - - - - 26.3 - 3.8
09/04:00am ESE 2 5 - - - - - - - 26.1 - 3.8
09/03:30am SSE 3 7 - - - - - - - 26.1 - 3.8
09/03:00am SW 4 6 - - - - - - - 24.5 - 3.8
09/02:30am SSW 2 4 - - - - - - - 26.1 - 3.8
09/02:00am SSE 2 4 - - - - - - - 26.1 - 3.8
09/01:30am SSE 2 4 - - - - - - - 26.3 - 3.8
09/01:00am SSE 2 5 - - - - - - - 26.4 - 3.8
09/12:30am E 2 5 - - - - - - - 26.3 - 3.8
09/12:00am SSE 3 6 - - - - - - - 26.5 - 3.8
 
Date/Time
EST
Wind Sea
Height
m
Swell Vis
km
Cloud Weather Temp
°C
Press
MSL
hPa
Rain since
9am
mm
Dir  Spd
kts
Gust
kts
Height
m
Period
s
Dir
08/11:30pm E 3 6 - - - - - - - 26.5 - 3.8
08/11:00pm ENE 2 5 - - - - - - - 26.7 - 3.8
08/10:30pm ESE 3 6 - - - - - - - 26.8 - 3.8
08/10:00pm ESE 2 5 - - - - - - - 26.9 - 3.8
08/09:30pm ESE 2 5 - - - - - - - 26.7 - 3.8
08/09:00pm ESE 3 6 - - - - - - - 27.0 - 3.8
08/08:30pm ESE 3 6 - - - - - - - 27.0 - 3.8
08/08:00pm SE 3 6 - - - - - - - 27.1 - 3.8
08/07:30pm SSE 2 5 - - - - - - - 27.0 - 3.8
08/07:00pm ESE 2 4 - - - - - - - 27.1 - 3.8
08/06:30pm ESE 3 6 - - - - - - - 27.3 - 3.8
08/06:00pm ESE 3 6 - - - - - - - 27.7 - 3.8
08/05:30pm ESE 3 6 - - - - - - - 27.9 - 3.8
08/05:00pm SE 4 9 - - - - - - - 28.2 - 3.8
08/04:30pm ESE 4 7 - - - - - - - 28.5 - 3.8
08/04:00pm ESE 4 8 - - - - - - - 28.5 - 3.6
08/03:30pm ESE 3 9 - - - - - - - 28.4 - 3.6
08/03:00pm ENE 3 7 - - - - - - Recent precip. 28.2 - 3.6
08/02:30pm S 4 7 - - - - - - - 26.5 - 3.6
08/02:00pm SSE 4 8 - - - - - - - 26.4 - 3.4
08/01:30pm SSE 3 7 - - - - - - - 26.1 - 3.4
08/01:00pm SE 5 9 - - - - - - - 27.0 - 3.2
08/12:30pm ESE 4 8 - - - - - - - 27.3 - 3.2
08/12:00pm ESE 5 11 - - - - - - Rain 25.5 - 3.2
08/11:30am SSE 6 11 - - - - - - - 29.7 - 0.0
08/11:00am SE 3 10 - - - - - - - 30.6 - 0.0
08/10:30am SSE 6 11 - - - - - - - 30.2 - 0.0
08/10:00am E 3 5 - - - - - - - 31.5 - 0.0
08/09:30am ESE 3 6 - - - - - - - 31.5 - 0.0
08/09:00am ESE 4 7 - - - - - - - 30.6 - 0.4
08/08:30am ESE 4 7 - - - - - - - 29.9 - 0.4
08/08:00am SE 4 8 - - - - - - - 29.2 - 0.4
08/07:30am ESE 4 10 - - - - - - - 28.0 - 0.4
08/07:00am ESE 4 9 - - - - - - - 28.3 - 0.4
08/06:30am ESE 4 9 - - - - - - - 27.3 - 0.4
08/06:00am E 4 8 - - - - - - - 27.0 - 0.4
08/05:30am ESE 4 7 - - - - - - - 26.9 - 0.4
08/05:00am SE 4 7 - - - - - - - 26.7 - 0.4
08/04:30am ESE 4 9 - - - - - - - 26.6 - 0.4
08/04:00am SE 3 7 - - - - - - - 26.7 - 0.4
08/03:30am ESE 4 7 - - - - - - - 26.9 - 0.4
08/03:00am SE 4 7 - - - - - - - 27.1 - 0.4
08/02:30am ESE 4 8 - - - - - - - 27.0 - 0.4
08/02:00am ESE 3 7 - - - - - - - 26.9 - 0.4
08/01:30am SSW 3 7 - - - - - - - 26.8 - 0.4
08/01:00am ENE 3 6 - - - - - - - 26.9 - 0.4
08/12:30am SE 4 7 - - - - - - - 27.2 - 0.4
08/12:00am SSE 2 7 - - - - - - - 26.8 - 0.4
 
Date/Time
EST
Wind Sea
Height
m
Swell Vis
km
Cloud Weather Temp
°C
Press
MSL
hPa
Rain since
9am
mm
Dir  Spd
kts
Gust
kts
Height
m
Period
s
Dir
07/11:30pm ESE 3 7 - - - - - - - 26.7 - 0.4
07/11:00pm SE 2 7 - - - - - - - 26.9 - 0.4
07/10:30pm ESE 3 8 - - - - - - - 27.1 - 0.4
07/10:00pm ESE 4 8 - - - - - - - 27.3 - 0.4
07/09:30pm SSW 2 4 - - - - - - - 27.2 - 0.4
07/09:00pm SSE 2 5 - - - - - - - 27.2 - 0.4
07/08:30pm SE 3 6 - - - - - - - 27.4 - 0.4
07/08:00pm SSE 2 5 - - - - - - - 27.1 - 0.4
07/07:30pm SSE 2 5 - - - - - - - 27.2 - 0.4
07/07:00pm S 2 5 - - - - - - - 27.3 - 0.4
07/06:30pm SSE 3 6 - - - - - - - 27.4 - 0.4
07/06:00pm SE 2 6 - - - - - - - 27.9 - 0.4
07/05:30pm ENE 3 6 - - - - - - - 28.6 - 0.4
07/05:00pm SE 4 8 - - - - - - - 28.9 - 0.4
07/04:30pm ESE 2 5 - - - - - - - 29.7 - 0.4
07/04:00pm ESE 3 7 - - - - - - - 30.4 - 0.4
07/03:30pm SE 2 6 - - - - - - - 28.0 - 0.4
07/03:00pm SE 4 9 - - - - - - Recent precip. 26.4 - 0.4
07/02:30pm ESE 4 12 - - - - - - - 27.4 - 0.0
07/02:00pm S 4 8 - - - - - - - 29.0 - 0.0
07/01:30pm SSE 2 6 - - - - - - - 28.3 - 0.0
07/01:00pm SSW 4 7 - - - - - - - 29.3 - 0.0
07/12:30pm SSE 4 7 - - - - - - - 28.8 - 0.0
07/12:00pm S 5 9 - - - - - - - 27.3 - 0.0
07/11:30am S 5 9 - - - - - - - 26.4 - 0.0
07/11:00am ESE 4 10 - - - - - - - 24.6 - 0.0
07/10:30am ENE 11 17 - - - - - - - 25.4 - 0.0
07/10:00am E 6 11 - - - - - - - 27.1 - 0.0
07/09:30am E 6 10 - - - - - - - 25.5 - 0.0
07/09:00am SE 4 8 - - - - - - - 28.2 - 0.0
07/08:30am SE 3 7 - - - - - - - 28.8 - 0.0
07/08:00am SE 4 8 - - - - - - - 30.0 - 0.0
07/07:30am SE 3 7 - - - - - - - 28.7 - 0.0
07/07:00am ESE 3 6 - - - - - - - 28.1 - 0.0
07/06:30am SSE 3 6 - - - - - - - 26.9 - 0.0
07/06:00am S 2 6 - - - - - - - 26.6 - 0.0
07/05:30am SSE 3 6 - - - - - - - 26.4 - 0.0
07/05:00am S 2 6 - - - - - - - 26.2 - 0.0
07/04:30am SSW 3 6 - - - - - - - 25.6 - 0.0
07/04:00am S 3 5 - - - - - - - 26.2 - 0.0
07/03:30am SW 2 5 - - - - - - - 24.9 - 0.0
07/03:00am SSW 2 4 - - - - - - - 25.5 - 0.0
07/02:30am S 2 4 - - - - - - - 26.5 - 0.0
07/02:00am SSW 2 5 - - - - - - - 24.1 - 0.0
07/01:30am SW 3 5 - - - - - - - 24.0 - 0.0
07/01:00am SW 3 5 - - - - - - - 24.2 - 0.0
07/12:30am WSW 3 6 - - - - - - - 25.4 - 0.0
07/12:00am ESE 2 4 - - - - - - - 27.2 - 0.0
 
Date/Time
EST
Wind Sea
Height
m
Swell Vis
km
Cloud Weather Temp
°C
Press
MSL
hPa
Rain since
9am
mm
Dir  Spd
kts
Gust
kts
Height
m
Period
s
Dir
06/11:30pm ESE 3 5 - - - - - - - 27.3 - 0.0
06/11:00pm SE 3 5 - - - - - - - 27.3 - 0.0
06/10:30pm SSE 2 4 - - - - - - - 27.3 - 0.0
06/10:00pm SE 2 5 - - - - - - - 27.4 - 0.0
06/09:30pm SE 3 5 - - - - - - - 27.6 - 0.0
06/09:00pm SE 3 5 - - - - - - - 27.6 - 0.0
06/08:30pm ESE 3 6 - - - - - - - 27.6 - 0.0
06/08:00pm SSE 2 5 - - - - - - - 27.4 - 0.0
06/07:30pm ESE 2 5 - - - - - - - 27.4 - 0.0

Other formats

Comma delimited format used in spreadsheet applications
http://www.bom.gov.au/fwo/IDQ60701/IDQ60701.99218.axf

JavaScript Object Notation format (JSON) in row-major order
http://www.bom.gov.au/fwo/IDQ60701/IDQ60701.99218.json

Data quality

Most of these data are generated automatically and are frequently updated. Quality checks on data are not normally performed. It is possible for incorrect values to appear. Refer to information at About Latest Weather Observations and please check the disclaimer before using these data.